Airfield :







YOU CAN JOIN US ON...

 
LOGIN :

Register | Disclaimer

   EN    FR    IT 

 









Legend :    VFR   Marginal VFR   IFR   Intensive IFR   Very Intensive IFR
Visi :
Ceiling :
>= 8 km
>= 3000ft
5 to 8 km
1000 to 3000 ft
1500m to 5 km
500 to 1000 ft
800 to 1500m
200 to 500 ft
< 800m
< 200 ft
Symbols :   Thunderstorms  Fog  Heavy snow  Heavy precipitations  Wind > 20 kt






- Airport Elevation : 193 ft
- IATA code : ZBF


CZBF - Bathurst

CURRENT METAR :
  • 060613Z AUTO 22004KT 9SM -RA SCT019 BKN026 OVC035 03/02 A2971 RMK SLP064

EXPIRED METARs :
  • 060608Z AUTO 23003KT 9SM -RA BKN021 BKN028 OVC044 03/02 A2971 RMK SLP064
  • 060538Z AUTO 21004KT 9SM -RA BKN024 OVC032 03/02 A2971 RMK SLP066
  • 060526Z AUTO 21005KT 9SM -RA BKN026 OVC034 03/01 A2972 RMK SLP067
  • 060500Z AUTO 21006KT 9SM -RA OVC033 03/01 A2972 RMK SLP069
  • 060425Z AUTO 19004KT 9SM -RA BKN035 BKN050 OVC070 03/01 A2973 RMK SLP072
  • 060400Z AUTO 20003KT 9SM -RA SCT041 BKN050 OVC065 02/01 A2974 RMK SLP075

Expired Forecast.



MET'MAP, your aeronautical weather chart ! - Copyright ORBIFLY December 2007 - Disclaimer

ORBIFLY MET'MAP TEAM :

Programming & Development : Alexandra Zaïnal
Concept & original design : Baudouin d'Aumeries
Assistance for programming : Marc-Olivier Méhu
Technical & hardware support : Manuel Goepfert

Contact : metmap@orbifly.com




SOURCES & CREDITS :

   NOAA